createdAt,value
2023-04-21T00:01:26.189Z,11.17
2023-04-21T00:03:55.500Z,11.40
2023-04-21T00:06:23.552Z,10.47
2023-04-21T00:08:51.614Z,10.97
2023-04-21T00:11:19.644Z,10.20
2023-04-21T00:13:47.377Z,10.93
2023-04-21T00:16:15.170Z,11.43
2023-04-21T00:18:44.267Z,10.03
2023-04-21T00:21:12.090Z,10.63
2023-04-21T00:23:39.791Z,10.70
2023-04-21T00:26:07.670Z,10.67
2023-04-21T00:28:35.417Z,10.47
2023-04-21T00:31:03.204Z,9.97
2023-04-21T00:33:31.031Z,10.33
2023-04-21T00:36:00.120Z,10.90
2023-04-21T00:38:27.918Z,10.57
2023-04-21T00:40:55.670Z,10.37
2023-04-21T00:43:23.387Z,10.17
2023-04-21T00:45:51.130Z,10.47
2023-04-21T00:48:18.883Z,10.27
2023-04-21T00:50:46.989Z,9.23
2023-04-21T00:53:16.936Z,9.53
2023-04-21T00:55:44.876Z,9.67
2023-04-21T00:58:12.681Z,9.63
2023-04-21T01:00:40.480Z,9.10
2023-04-21T01:03:08.773Z,9.33
2023-04-21T01:05:37.284Z,9.57
2023-04-21T01:08:07.316Z,8.83
2023-04-21T01:10:36.391Z,9.03
2023-04-21T01:13:04.199Z,9.20
2023-04-21T01:15:32.035Z,9.47
2023-04-21T01:17:59.891Z,9.13
2023-04-21T01:20:29.763Z,10.27
2023-04-21T01:22:58.872Z,9.10
2023-04-21T01:25:28.514Z,8.53
2023-04-21T01:27:56.303Z,8.07
2023-04-21T01:30:24.134Z,8.60
2023-04-21T01:32:51.962Z,8.00
2023-04-21T01:35:19.793Z,7.60
2023-04-21T01:37:47.535Z,8.57
2023-04-21T01:40:16.624Z,8.83
2023-04-21T01:42:44.873Z,8.93
2023-04-21T01:45:13.170Z,9.17
2023-04-21T01:47:40.989Z,7.70
2023-04-21T01:50:10.004Z,8.30
2023-04-21T01:52:37.781Z,8.73
2023-04-21T01:55:06.213Z,8.93
2023-04-21T01:57:36.171Z,8.77
2023-04-21T02:00:04.264Z,8.67
2023-04-21T02:02:32.033Z,7.87
2023-04-21T02:04:59.907Z,8.13
2023-04-21T02:07:27.675Z,8.03
2023-04-21T02:09:55.385Z,8.50
2023-04-21T02:12:23.187Z,8.13
2023-04-21T02:14:52.374Z,7.87
2023-04-21T02:17:20.091Z,7.47
2023-04-21T02:19:47.804Z,7.47
2023-04-21T02:22:15.573Z,8.30
2023-04-21T02:24:43.292Z,6.77
2023-04-21T02:27:11.067Z,9.47
2023-04-21T02:29:38.760Z,11.63
2023-04-21T02:32:22.178Z,8.17
2023-04-21T02:34:53.055Z,8.30
2023-04-21T02:37:20.941Z,7.87
2023-04-21T02:39:48.636Z,8.53
2023-04-21T02:42:16.366Z,14.20
2023-04-21T02:44:44.080Z,9.13
2023-04-21T02:47:13.167Z,7.50
2023-04-21T02:49:44.417Z,8.33
2023-04-21T02:52:12.168Z,9.23
2023-04-21T02:54:39.938Z,8.63
2023-04-21T02:57:07.694Z,8.50
2023-04-21T02:59:35.476Z,7.60
2023-04-21T03:02:04.260Z,7.37
2023-04-21T03:04:34.181Z,8.30
2023-04-21T03:07:02.079Z,7.93
2023-04-21T03:09:29.888Z,8.13
2023-04-21T03:11:57.573Z,8.53
2023-04-21T03:14:25.315Z,7.23
2023-04-21T03:16:53.291Z,6.50
2023-04-21T03:19:21.433Z,6.57
2023-04-21T03:21:50.830Z,6.93
2023-04-21T03:24:19.313Z,6.47
2023-04-21T03:26:47.142Z,7.73
2023-04-21T03:29:14.948Z,7.97
2023-04-21T03:31:42.844Z,7.20
2023-04-21T03:34:10.682Z,7.60
2023-04-21T03:36:38.371Z,6.50
2023-04-21T03:39:19.064Z,6.63
2023-04-21T03:41:47.380Z,6.87
2023-04-21T03:44:15.212Z,7.57
2023-04-21T03:46:42.958Z,7.80
2023-04-21T03:49:10.738Z,8.00
2023-04-21T03:51:38.538Z,7.57
2023-04-21T03:54:08.414Z,7.40
2023-04-21T03:56:36.189Z,7.30
2023-04-21T03:59:03.956Z,7.77
2023-04-21T04:01:31.639Z,7.07
2023-04-21T04:03:59.732Z,6.73
2023-04-21T04:06:28.397Z,7.47
2023-04-21T04:08:56.134Z,7.20
2023-04-21T04:11:25.247Z,6.37
2023-04-21T04:13:52.980Z,6.70
2023-04-21T04:16:23.112Z,8.40
2023-04-21T04:18:51.160Z,7.13
2023-04-21T04:21:18.958Z,8.93
2023-04-21T04:23:46.741Z,8.00
2023-04-21T04:26:14.548Z,6.83
2023-04-21T04:28:43.734Z,6.63
2023-04-21T04:31:13.626Z,7.87
2023-04-21T04:33:42.560Z,8.17
2023-04-21T04:36:12.048Z,6.97
2023-04-21T04:38:40.345Z,7.27
2023-04-21T04:41:08.975Z,7.87
2023-04-21T04:43:39.039Z,8.00
2023-04-21T04:46:09.228Z,8.60
2023-04-21T04:48:37.177Z,7.17
2023-04-21T04:51:05.147Z,7.43
2023-04-21T04:53:33.006Z,8.20
2023-04-21T04:56:00.731Z,9.20
2023-04-21T04:58:28.466Z,7.17
2023-04-21T05:00:56.299Z,8.70
2023-04-21T05:03:25.656Z,8.10
2023-04-21T05:05:54.217Z,9.00
2023-04-21T05:08:21.953Z,7.60
2023-04-21T05:10:49.658Z,8.33
2023-04-21T05:13:18.345Z,6.93
2023-04-21T05:15:46.079Z,8.47
2023-04-21T05:18:13.837Z,5.67
2023-04-21T05:20:44.488Z,7.60
2023-04-21T05:23:12.228Z,7.97
2023-04-21T05:25:40.263Z,7.00
2023-04-21T05:28:08.103Z,8.90
2023-04-21T05:30:36.513Z,6.63
2023-04-21T05:33:04.579Z,7.53
2023-04-21T05:35:32.391Z,5.87
2023-04-21T05:38:01.439Z,7.77
2023-04-21T05:40:29.237Z,7.70
2023-04-21T05:42:57.040Z,6.63
2023-04-21T05:45:24.788Z,7.53
2023-04-21T05:47:52.756Z,6.70
2023-04-21T05:50:20.637Z,6.90
2023-04-21T05:52:48.351Z,7.10
2023-04-21T05:55:17.448Z,6.73
2023-04-21T05:57:45.173Z,7.53
2023-04-21T06:00:14.173Z,7.67
2023-04-21T06:02:41.975Z,6.53
2023-04-21T06:05:10.597Z,6.93
2023-04-21T06:07:38.498Z,4.83
2023-04-21T06:10:07.341Z,6.23
2023-04-21T06:12:36.426Z,7.37
2023-04-21T06:15:04.865Z,7.43
2023-04-21T06:17:32.679Z,7.50
2023-04-21T06:20:00.449Z,7.50
2023-04-21T06:22:28.623Z,7.43
2023-04-21T06:24:56.949Z,6.33
2023-04-21T06:27:25.579Z,7.00
2023-04-21T06:29:56.896Z,8.00
2023-04-21T06:32:24.738Z,7.83
2023-04-21T06:34:52.496Z,6.30
2023-04-21T06:37:20.250Z,7.13
2023-04-21T06:39:48.110Z,6.37
2023-04-21T06:42:16.504Z,6.00
2023-04-21T06:44:44.286Z,6.20
2023-04-21T06:47:13.380Z,6.63
2023-04-21T06:49:41.148Z,5.93
2023-04-21T06:52:08.981Z,7.03
2023-04-21T06:54:37.503Z,7.57
2023-04-21T06:57:05.722Z,6.87
2023-04-21T06:59:34.342Z,6.40
2023-04-21T07:02:02.143Z,5.47
2023-04-21T07:04:32.310Z,4.97
2023-04-21T07:07:03.014Z,6.17
2023-04-21T07:09:33.790Z,5.27
2023-04-21T07:12:02.739Z,7.17
2023-04-21T07:14:30.830Z,6.83
2023-04-21T07:16:58.623Z,7.63
2023-04-21T07:19:26.487Z,6.33
2023-04-21T07:21:55.617Z,6.83
2023-04-21T07:24:23.384Z,6.03
2023-04-21T07:26:51.492Z,6.63
2023-04-21T07:29:19.352Z,5.77
2023-04-21T07:31:48.288Z,6.07
2023-04-21T07:34:16.267Z,8.10
2023-04-21T07:36:44.057Z,6.60
2023-04-21T07:39:13.264Z,6.27
2023-04-21T07:41:41.126Z,5.73
2023-04-21T07:44:09.015Z,7.83
2023-04-21T07:46:36.826Z,6.63
2023-04-21T07:49:04.553Z,7.17
2023-04-21T07:51:32.769Z,7.33
2023-04-21T07:54:00.742Z,7.97
2023-04-21T07:56:30.007Z,7.20
2023-04-21T07:58:57.738Z,7.20
2023-04-21T08:01:25.590Z,7.33
2023-04-21T08:03:53.414Z,7.40
2023-04-21T08:06:21.559Z,6.97
2023-04-21T08:08:50.436Z,6.77
2023-04-21T08:11:18.359Z,7.23
2023-04-21T08:13:47.541Z,6.60
2023-04-21T08:16:15.425Z,6.33
2023-04-21T08:18:43.251Z,6.17
2023-04-21T08:21:10.941Z,6.47
2023-04-21T08:23:38.647Z,6.93
2023-04-21T08:26:06.636Z,6.80
2023-04-21T08:28:34.409Z,7.93
2023-04-21T08:31:04.849Z,6.87
2023-04-21T08:33:33.724Z,7.40
2023-04-21T08:36:09.899Z,6.57
2023-04-21T08:38:45.064Z,6.43
2023-04-21T08:41:13.833Z,5.70
2023-04-21T08:43:41.623Z,7.27
2023-04-21T08:46:10.897Z,4.83
2023-04-21T08:48:40.067Z,6.73
2023-04-21T08:51:10.502Z,6.30
2023-04-21T08:53:38.741Z,7.47
2023-04-21T08:56:11.194Z,5.67
2023-04-21T08:58:39.623Z,5.90
2023-04-21T09:01:07.528Z,5.40
2023-04-21T09:03:37.839Z,7.63
2023-04-21T09:06:08.207Z,6.47
2023-04-21T09:08:40.501Z,6.50
2023-04-21T09:11:08.236Z,5.50
2023-04-21T09:13:37.528Z,7.17
2023-04-21T09:16:08.604Z,5.77
2023-04-21T09:18:40.302Z,5.97
2023-04-21T09:21:10.618Z,4.80
2023-04-21T09:23:46.071Z,6.07
2023-04-21T09:26:14.200Z,4.77
2023-04-21T09:28:43.307Z,4.40
2023-04-21T09:31:19.792Z,4.17
2023-04-21T09:36:23.182Z,4.60
2023-04-21T09:39:15.421Z,3.97
2023-04-21T09:41:44.938Z,5.60
2023-04-21T09:44:12.940Z,4.87
2023-04-21T09:46:44.743Z,4.77
2023-04-21T09:49:15.086Z,4.47
2023-04-21T09:52:10.498Z,4.27
2023-04-21T09:54:33.781Z,4.53
2023-04-21T09:57:03.573Z,5.03
2023-04-21T09:59:34.045Z,4.53
2023-04-21T10:02:02.415Z,3.93
2023-04-21T10:04:33.379Z,3.90
2023-04-21T10:07:01.890Z,3.90
2023-04-21T10:09:36.434Z,3.93
2023-04-21T10:12:06.931Z,5.40
2023-04-21T10:14:36.378Z,3.93
2023-04-21T10:17:06.739Z,5.20
2023-04-21T10:19:39.954Z,4.53
2023-04-21T10:22:09.596Z,5.20
2023-04-21T10:24:40.053Z,4.40
2023-04-21T10:27:11.161Z,3.87
2023-04-21T10:29:52.614Z,5.83
2023-04-21T10:32:34.606Z,4.90
2023-04-21T10:35:03.718Z,5.30
2023-04-21T10:37:32.503Z,4.37
2023-04-21T10:40:00.337Z,3.30
2023-04-21T10:42:31.406Z,4.70
2023-04-21T10:45:12.558Z,3.60
2023-04-21T10:47:51.976Z,4.00
2023-04-21T10:50:23.527Z,3.83
2023-04-21T10:52:59.246Z,3.33
2023-04-21T10:55:28.950Z,3.23
2023-04-21T10:57:57.189Z,2.60
2023-04-21T11:00:27.839Z,3.30
2023-04-21T11:03:00.739Z,4.07
2023-04-21T11:05:32.533Z,3.53
2023-04-21T11:08:07.799Z,3.33
2023-04-21T11:10:54.362Z,3.60
2023-04-21T11:13:24.540Z,3.50
2023-04-21T11:16:02.814Z,3.27
2023-04-21T11:18:42.555Z,3.50
2023-04-21T11:21:18.689Z,3.47
2023-04-21T11:23:54.521Z,2.90
2023-04-21T11:26:32.830Z,3.70
2023-04-21T11:29:05.254Z,3.30
2023-04-21T11:31:33.521Z,3.60
2023-04-21T11:34:01.855Z,4.63
2023-04-21T11:36:31.044Z,4.23
2023-04-21T11:38:59.371Z,3.67
2023-04-21T11:41:27.232Z,4.70
2023-04-21T11:43:54.900Z,4.27
2023-04-21T11:46:26.037Z,4.60
2023-04-21T11:49:01.071Z,4.00
2023-04-21T11:51:35.375Z,4.83
2023-04-21T11:54:04.313Z,4.20
2023-04-21T11:56:36.416Z,3.80
2023-04-21T11:59:08.212Z,4.83
2023-04-21T12:01:36.475Z,4.87
2023-04-21T12:04:05.815Z,5.40
2023-04-21T12:06:38.753Z,5.47
2023-04-21T12:09:06.608Z,4.50
2023-04-21T12:11:35.968Z,5.07
2023-04-21T12:14:03.772Z,5.03
2023-04-21T12:16:31.580Z,5.27
2023-04-21T12:18:59.383Z,4.40
2023-04-21T12:21:31.599Z,5.17
2023-04-21T12:24:00.681Z,4.80
2023-04-21T12:26:28.373Z,5.37
2023-04-21T12:28:56.176Z,4.40
2023-04-21T12:31:23.884Z,5.23
2023-04-21T12:33:51.714Z,4.53
2023-04-21T12:36:19.426Z,5.23
2023-04-21T12:38:47.530Z,4.53
2023-04-21T12:41:16.649Z,5.50
2023-04-21T12:43:44.581Z,4.80
2023-04-21T12:46:12.353Z,5.00
2023-04-21T12:48:40.195Z,4.03
2023-04-21T12:51:08.214Z,5.17
2023-04-21T12:53:36.804Z,4.97
2023-04-21T12:56:05.774Z,3.93
2023-04-21T12:58:35.260Z,3.90
2023-04-21T13:01:04.270Z,4.27
2023-04-21T13:03:42.361Z,3.23
2023-04-21T13:06:12.665Z,3.80
2023-04-21T13:08:40.412Z,4.73
2023-04-21T13:11:08.157Z,3.80
2023-04-21T13:13:37.306Z,4.83
2023-04-21T13:16:05.770Z,4.53
2023-04-21T13:18:34.837Z,4.03
2023-04-21T13:21:02.772Z,3.90
2023-04-21T13:23:30.704Z,3.40
2023-04-21T13:25:58.442Z,3.87
2023-04-21T13:28:26.774Z,3.50
2023-04-21T13:30:55.872Z,4.23
2023-04-21T13:33:24.672Z,4.40
2023-04-21T13:35:52.463Z,4.37
2023-04-21T13:38:20.935Z,4.57
2023-04-21T13:40:49.131Z,4.10
2023-04-21T13:43:17.020Z,4.23
2023-04-21T13:45:46.029Z,3.50
2023-04-21T13:48:15.163Z,3.57
2023-04-21T13:50:42.855Z,4.20
2023-04-21T13:53:10.885Z,4.27
2023-04-21T13:55:38.607Z,4.43
2023-04-21T13:58:06.755Z,3.67
2023-04-21T14:00:34.491Z,2.83
2023-04-21T14:03:02.385Z,2.53
2023-04-21T14:05:31.938Z,3.17
2023-04-21T14:07:59.959Z,3.20
2023-04-21T14:10:28.034Z,3.40
2023-04-21T14:12:55.733Z,3.20
2023-04-21T14:15:23.515Z,3.67
2023-04-21T14:17:51.323Z,3.60
2023-04-21T14:20:19.238Z,3.53
2023-04-21T14:22:48.280Z,3.27
2023-04-21T14:25:16.190Z,3.50
2023-04-21T14:27:44.083Z,3.27
2023-04-21T14:30:13.146Z,3.27
2023-04-21T14:32:45.186Z,3.60
2023-04-21T14:35:13.395Z,3.10
2023-04-21T14:37:42.084Z,3.37
2023-04-21T14:40:11.931Z,3.77
2023-04-21T14:42:41.423Z,3.17
2023-04-21T14:45:10.423Z,3.17
2023-04-21T14:47:38.316Z,4.57
2023-04-21T14:50:07.502Z,4.03
2023-04-21T14:52:36.093Z,3.50
2023-04-21T14:55:04.409Z,3.20
2023-04-21T14:57:33.649Z,3.47
2023-04-21T15:00:02.179Z,3.70
2023-04-21T15:02:30.915Z,2.63
2023-04-21T15:04:59.076Z,3.50
2023-04-21T15:07:26.897Z,4.00
2023-04-21T15:09:55.390Z,3.40
2023-04-21T15:12:23.242Z,3.10
2023-04-21T15:14:52.581Z,4.30
2023-04-21T15:17:20.370Z,3.57
2023-04-21T15:19:48.111Z,3.30
2023-04-21T15:22:16.130Z,3.90
2023-04-21T15:24:44.022Z,3.30
2023-04-21T15:27:11.710Z,3.00
2023-04-21T15:29:39.522Z,3.83
2023-04-21T15:32:08.737Z,2.67
2023-04-21T15:34:36.574Z,3.20
2023-04-21T15:37:04.528Z,3.40
2023-04-21T15:39:32.324Z,2.90
2023-04-21T15:42:00.188Z,4.00
2023-04-21T15:44:28.230Z,3.57
2023-04-21T15:46:56.159Z,2.60
2023-04-21T15:49:33.029Z,3.50
2023-04-21T15:52:00.862Z,2.80
2023-04-21T15:54:28.638Z,3.03
2023-04-21T15:56:57.589Z,2.80
2023-04-21T15:59:26.282Z,2.90
2023-04-21T16:01:54.486Z,3.23
2023-04-21T16:04:22.552Z,3.80
2023-04-21T16:06:52.128Z,3.27
2023-04-21T16:09:21.089Z,3.33
2023-04-21T16:11:50.103Z,3.33
2023-04-21T16:14:18.021Z,3.70
2023-04-21T16:16:46.236Z,4.03
2023-04-21T16:19:14.233Z,3.80
2023-04-21T16:21:42.860Z,4.27
2023-04-21T16:24:12.150Z,4.37
2023-04-21T16:26:40.497Z,3.40
2023-04-21T16:29:08.641Z,2.97
2023-04-21T16:31:36.452Z,2.77
2023-04-21T16:34:04.277Z,3.40
2023-04-21T16:36:32.489Z,3.83
2023-04-21T16:39:00.732Z,3.70
2023-04-21T16:41:30.401Z,3.70
2023-04-21T16:43:58.358Z,3.53
2023-04-21T16:46:28.179Z,3.50
2023-04-21T16:48:55.974Z,4.07
2023-04-21T16:51:23.739Z,3.43
2023-04-21T16:53:52.073Z,2.80
2023-04-21T16:56:21.643Z,3.30
2023-04-21T16:58:50.871Z,3.83
2023-04-21T17:01:18.674Z,2.77
2023-04-21T17:03:46.598Z,4.47
2023-04-21T17:06:17.283Z,3.97
2023-04-21T17:08:45.087Z,4.20
2023-04-21T17:11:12.847Z,4.43
2023-04-21T17:13:40.585Z,4.67
2023-04-21T17:16:09.772Z,3.80
2023-04-21T17:18:37.520Z,3.93
2023-04-21T17:21:06.139Z,4.43
2023-04-21T17:23:33.948Z,4.07
2023-04-21T17:26:02.051Z,3.80
2023-04-21T17:28:29.795Z,4.13
2023-04-21T17:31:11.336Z,3.40
2023-04-21T17:33:43.483Z,3.83
2023-04-21T17:36:11.479Z,3.27
2023-04-21T17:38:39.771Z,3.30
2023-04-21T17:41:07.824Z,3.57
2023-04-21T17:43:35.560Z,4.70
2023-04-21T17:46:03.375Z,6.17
2023-04-21T17:48:31.131Z,4.63
2023-04-21T17:51:00.208Z,4.27
2023-04-21T17:53:28.018Z,4.30
2023-04-21T17:55:56.495Z,4.10
2023-04-21T17:58:24.276Z,3.80
2023-04-21T18:00:52.057Z,3.90
2023-04-21T18:03:19.996Z,4.20
2023-04-21T18:05:47.898Z,3.90
2023-04-21T18:08:17.066Z,4.00
2023-04-21T18:10:44.811Z,4.90
2023-04-21T18:13:12.523Z,4.43
2023-04-21T18:15:41.627Z,4.07
2023-04-21T18:18:09.575Z,4.67
2023-04-21T18:20:37.967Z,4.80
2023-04-21T18:23:06.068Z,4.90
2023-04-21T18:28:08.339Z,4.07
2023-04-21T18:30:36.046Z,4.53
2023-04-21T18:33:03.783Z,4.20
2023-04-21T18:35:33.180Z,3.70
2023-04-21T18:38:01.156Z,3.77
2023-04-21T18:40:28.976Z,4.37
2023-04-21T18:42:58.120Z,4.50
2023-04-21T18:45:25.875Z,4.27
2023-04-21T18:47:53.601Z,4.30
2023-04-21T18:50:21.356Z,4.63
2023-04-21T18:52:49.160Z,4.53
2023-04-21T18:55:17.002Z,4.70
2023-04-21T18:57:44.721Z,5.17
2023-04-21T19:00:15.633Z,4.37
2023-04-21T19:02:44.669Z,5.00
2023-04-21T19:05:12.582Z,4.60
2023-04-21T19:07:41.840Z,4.63
2023-04-21T19:10:10.360Z,4.30
2023-04-21T19:12:38.198Z,4.90
2023-04-21T19:15:07.598Z,5.47
2023-04-21T19:17:37.647Z,4.87
2023-04-21T19:20:07.613Z,4.30
2023-04-21T19:22:36.126Z,4.83
2023-04-21T19:25:04.019Z,4.60
2023-04-21T19:27:32.640Z,5.10
2023-04-21T19:30:00.354Z,5.10
2023-04-21T19:32:28.539Z,5.30
2023-04-21T19:34:57.769Z,5.73
2023-04-21T19:37:26.681Z,5.57
2023-04-21T19:39:54.536Z,5.43
2023-04-21T19:42:22.276Z,5.07
2023-04-21T19:44:50.054Z,5.73
2023-04-21T19:47:18.117Z,4.60
2023-04-21T19:49:46.548Z,5.20
2023-04-21T19:52:15.686Z,5.00
2023-04-21T19:54:43.512Z,4.90
2023-04-21T19:57:11.302Z,5.00
2023-04-21T19:59:39.367Z,5.60
2023-04-21T20:02:07.873Z,4.93
2023-04-21T20:04:37.442Z,5.57
2023-04-21T20:07:05.744Z,5.17
2023-04-21T20:09:35.429Z,4.50
2023-04-21T20:12:03.267Z,5.30
2023-04-21T20:14:31.278Z,5.70
2023-04-21T20:16:59.027Z,5.33
2023-04-21T20:19:27.064Z,5.17
2023-04-21T20:21:54.834Z,4.67
2023-04-21T20:24:22.921Z,5.03
2023-04-21T20:26:52.077Z,4.83
2023-04-21T20:29:19.807Z,5.37
2023-04-21T20:31:47.746Z,4.73
2023-04-21T20:34:15.742Z,5.40
2023-04-21T20:36:43.539Z,6.37
2023-04-21T20:39:14.217Z,5.30
2023-04-21T20:41:43.543Z,5.60
2023-04-21T20:44:14.127Z,5.03
2023-04-21T20:46:42.090Z,5.73
2023-04-21T20:49:09.881Z,5.50
2023-04-21T20:51:41.809Z,5.57
2023-04-21T20:54:09.772Z,5.27
2023-04-21T20:56:37.669Z,5.50
2023-04-21T20:59:05.353Z,5.83
2023-04-21T21:01:38.803Z,5.40
2023-04-21T21:04:06.669Z,6.07
2023-04-21T21:06:34.990Z,6.07
2023-04-21T21:09:02.672Z,5.50
2023-04-21T21:11:30.617Z,5.87
2023-04-21T21:13:58.467Z,5.50
2023-04-21T21:16:26.218Z,5.33
2023-04-21T21:18:55.305Z,5.80
2023-04-21T21:21:23.066Z,5.60
2023-04-21T21:23:51.107Z,6.27
2023-04-21T21:26:19.013Z,5.80
2023-04-21T21:28:46.815Z,5.67
2023-04-21T21:31:14.584Z,6.47
2023-04-21T21:33:42.302Z,6.07
2023-04-21T21:36:11.472Z,5.57
2023-04-21T21:38:39.284Z,6.10
2023-04-21T21:41:07.453Z,6.10
2023-04-21T21:43:35.262Z,5.67
2023-04-21T21:46:03.018Z,6.00
2023-04-21T21:48:30.792Z,6.00
2023-04-21T21:50:58.499Z,6.67
2023-04-21T21:53:27.612Z,5.57
2023-04-21T21:55:55.328Z,6.53
2023-04-21T21:58:23.104Z,5.80
2023-04-21T22:00:52.005Z,6.60
2023-04-21T22:03:19.852Z,5.70
2023-04-21T22:05:47.947Z,5.90
2023-04-21T22:08:15.850Z,5.97
2023-04-21T22:10:45.205Z,6.03
2023-04-21T22:13:13.009Z,6.07
2023-04-21T22:15:41.271Z,5.80
2023-04-21T22:18:09.716Z,6.00
2023-04-21T22:20:37.739Z,7.23
2023-04-21T22:23:05.531Z,6.73
2023-04-21T22:25:33.354Z,6.17
2023-04-21T22:28:02.458Z,5.97
2023-04-21T22:30:31.712Z,6.20
2023-04-21T22:32:59.500Z,6.23
2023-04-21T22:35:27.253Z,6.80
2023-04-21T22:37:54.957Z,6.07
2023-04-21T22:40:22.688Z,6.57
2023-04-21T22:42:50.485Z,6.50
2023-04-21T22:45:19.675Z,6.73
2023-04-21T22:47:49.073Z,6.97
2023-04-21T22:50:16.835Z,6.40
2023-04-21T22:52:44.580Z,6.97
2023-04-21T22:55:12.258Z,6.87
2023-04-21T22:57:39.972Z,6.47
2023-04-21T23:00:09.865Z,6.97
2023-04-21T23:02:39.059Z,7.27
2023-04-21T23:05:07.683Z,7.57
2023-04-21T23:07:36.583Z,7.30
2023-04-21T23:10:04.754Z,7.50
2023-04-21T23:12:32.513Z,7.00
2023-04-21T23:15:00.274Z,7.27
2023-04-21T23:17:28.175Z,6.43
2023-04-21T23:19:57.309Z,6.40
2023-04-21T23:22:26.242Z,7.23
2023-04-21T23:24:54.090Z,7.27
2023-04-21T23:27:21.859Z,6.57
2023-04-21T23:29:49.589Z,6.93
2023-04-21T23:32:17.387Z,6.83
2023-04-21T23:34:45.814Z,7.43
2023-04-21T23:37:14.989Z,6.50
2023-04-21T23:39:42.733Z,7.80
2023-04-21T23:42:10.544Z,7.63
2023-04-21T23:44:40.164Z,7.10
2023-04-21T23:47:09.164Z,7.67
2023-04-21T23:49:37.078Z,6.90
2023-04-21T23:52:05.050Z,7.97
2023-04-21T23:54:34.217Z,8.03
2023-04-21T23:57:02.431Z,7.27
2023-04-21T23:59:30.166Z,7.63
